createdAt,value
2019-05-13T00:01:59.575Z,6.80
2019-05-13T00:04:29.016Z,6.80
2019-05-13T00:06:57.955Z,6.90
2019-05-13T00:09:29.331Z,6.80
2019-05-13T00:12:00.982Z,6.80
2019-05-13T00:14:34.473Z,6.80
2019-05-13T00:17:06.532Z,6.60
2019-05-13T00:19:45.059Z,6.60
2019-05-13T00:22:14.668Z,6.60
2019-05-13T00:24:46.467Z,6.40
2019-05-13T00:27:20.789Z,6.40
2019-05-13T00:29:55.454Z,6.50
2019-05-13T00:32:25.669Z,6.60
2019-05-13T00:34:56.683Z,6.60
2019-05-13T00:37:25.394Z,6.40
2019-05-13T00:40:00.152Z,6.20
2019-05-13T00:42:33.418Z,6.10
2019-05-13T00:45:15.379Z,6.10
2019-05-13T00:47:44.376Z,5.90
2019-05-13T00:50:15.836Z,5.70
2019-05-13T00:52:53.631Z,5.70
2019-05-13T00:55:28.485Z,5.80
2019-05-13T00:58:04.703Z,5.90
2019-05-13T01:00:34.749Z,5.80
2019-05-13T01:03:14.764Z,5.80
2019-05-13T01:05:46.700Z,5.80
2019-05-13T01:08:18.884Z,5.90
2019-05-13T01:10:47.640Z,5.90
2019-05-13T01:13:16.502Z,5.90
2019-05-13T01:15:50.881Z,5.70
2019-05-13T01:18:23.298Z,5.60
2019-05-13T01:20:57.713Z,5.70
2019-05-13T01:23:29.545Z,5.60
2019-05-13T01:26:00.958Z,5.50
2019-05-13T01:28:34.620Z,5.60
2019-05-13T01:31:06.434Z,5.40
2019-05-13T01:33:39.778Z,5.40
2019-05-13T01:36:13.423Z,5.50
2019-05-13T01:38:43.728Z,5.40
2019-05-13T01:41:20.963Z,5.60
2019-05-13T01:43:54.200Z,5.60
2019-05-13T01:46:40.761Z,5.60
2019-05-13T01:49:13.653Z,5.50
2019-05-13T01:51:54.183Z,5.40
2019-05-13T01:54:26.426Z,5.40
2019-05-13T01:57:04.127Z,5.30
2019-05-13T01:59:35.575Z,5.20
2019-05-13T02:02:04.741Z,5.20
2019-05-13T02:04:44.017Z,5.10
2019-05-13T02:07:18.704Z,5.00
2019-05-13T02:09:59.945Z,5.00
2019-05-13T02:12:33.862Z,5.00
2019-05-13T02:15:11.735Z,5.00
2019-05-13T02:17:44.675Z,5.00
2019-05-13T02:20:17.738Z,5.00
2019-05-13T02:22:53.642Z,5.20
2019-05-13T02:28:44.969Z,5.30
2019-05-13T02:31:25.033Z,5.20
2019-05-13T02:33:47.900Z,5.30
2019-05-13T02:36:22.772Z,5.20
2019-05-13T02:38:53.218Z,5.10
2019-05-13T02:41:28.088Z,5.00
2019-05-13T02:44:12.546Z,5.00
2019-05-13T02:46:52.472Z,5.00
2019-05-13T02:49:23.178Z,5.00
2019-05-13T02:51:54.576Z,4.90
2019-05-13T02:54:26.638Z,4.80
2019-05-13T02:57:03.743Z,4.90
2019-05-13T02:59:33.828Z,4.80
2019-05-13T03:02:06.640Z,4.90
2019-05-13T03:04:38.519Z,4.90
2019-05-13T03:07:13.556Z,4.80
2019-05-13T03:09:48.232Z,4.80
2019-05-13T03:12:18.220Z,4.80
2019-05-13T03:14:48.539Z,4.70
2019-05-13T03:17:34.143Z,4.70
2019-05-13T03:20:13.047Z,4.80
2019-05-13T03:22:43.400Z,4.50
2019-05-13T03:25:14.453Z,4.50
2019-05-13T03:27:43.161Z,4.40
2019-05-13T03:30:16.921Z,4.40
2019-05-13T03:33:01.110Z,4.30
2019-05-13T03:35:27.601Z,4.30
2019-05-13T03:37:58.713Z,4.50
2019-05-13T03:40:42.838Z,4.40
2019-05-13T03:43:16.593Z,4.40
2019-05-13T03:45:48.137Z,4.40
2019-05-13T03:48:23.862Z,4.30
2019-05-13T03:50:54.376Z,4.30
2019-05-13T03:53:33.603Z,4.20
2019-05-13T03:56:05.768Z,4.10
2019-05-13T03:58:43.943Z,4.10
2019-05-13T04:01:16.718Z,4.10
2019-05-13T04:03:52.753Z,4.10
2019-05-13T04:06:26.384Z,4.20
2019-05-13T04:09:15.825Z,4.30
2019-05-13T04:11:33.065Z,4.20
2019-05-13T04:14:04.482Z,4.30
2019-05-13T04:16:33.606Z,4.40
2019-05-13T04:19:23.564Z,4.50
2019-05-13T04:22:24.504Z,4.50
2019-05-13T04:24:54.115Z,4.60
2019-05-13T04:27:26.049Z,4.80
2019-05-13T04:30:03.086Z,5.40
2019-05-13T04:32:48.010Z,6.60
2019-05-13T04:35:32.374Z,7.60
2019-05-13T04:38:09.229Z,8.90
2019-05-13T04:40:36.611Z,10.20
2019-05-13T04:43:07.902Z,11.90
2019-05-13T04:45:42.849Z,13.40
2019-05-13T04:48:13.730Z,14.50
2019-05-13T04:50:55.617Z,14.70
2019-05-13T04:53:24.511Z,14.30
2019-05-13T04:55:56.213Z,14.70
2019-05-13T04:58:28.524Z,15.50
2019-05-13T05:01:18.286Z,12.70
2019-05-13T05:03:58.954Z,11.10
2019-05-13T05:07:06.068Z,11.30
2019-05-13T05:10:33.519Z,12.20
2019-05-13T05:13:32.197Z,13.00
2019-05-13T05:16:13.090Z,12.90
2019-05-13T05:19:02.396Z,12.10
2019-05-13T05:21:43.127Z,12.90
2019-05-13T05:24:32.434Z,12.90
2019-05-13T05:31:17.084Z,12.40
2019-05-13T05:34:22.003Z,12.50
2019-05-13T05:37:27.449Z,13.60
2019-05-13T05:40:02.012Z,13.00
2019-05-13T05:42:41.253Z,13.40
2019-05-13T05:45:11.661Z,13.90
2019-05-13T05:47:51.033Z,13.50
2019-05-13T05:50:27.812Z,15.00
2019-05-13T05:53:01.884Z,14.90
2019-05-13T05:55:35.874Z,14.40
2019-05-13T05:58:07.525Z,13.90
2019-05-13T06:00:52.514Z,12.40
2019-05-13T06:03:32.712Z,14.00
2019-05-13T06:06:24.305Z,15.30
2019-05-13T06:08:53.145Z,14.60
2019-05-13T06:11:24.511Z,13.20
2019-05-13T06:14:42.242Z,13.80
2019-05-13T06:17:11.894Z,14.50
2019-05-13T06:19:41.916Z,15.70
2019-05-13T06:22:14.396Z,15.10
2019-05-13T06:24:46.279Z,16.00
2019-05-13T06:27:18.299Z,15.00
2019-05-13T06:29:52.528Z,14.80
2019-05-13T06:32:31.622Z,13.90
2019-05-13T06:35:06.888Z,15.90
2019-05-13T06:37:48.854Z,13.80
2019-05-13T06:40:18.144Z,13.50
2019-05-13T06:42:51.953Z,13.60
2019-05-13T06:45:23.409Z,13.50
2019-05-13T06:47:56.986Z,13.20
2019-05-13T06:50:33.469Z,12.80
2019-05-13T06:53:02.444Z,13.50
2019-05-13T06:55:46.866Z,14.50
2019-05-13T06:58:18.408Z,14.80
2019-05-13T07:00:51.484Z,14.80
2019-05-13T07:03:25.446Z,13.50
2019-05-13T07:05:54.158Z,14.00
2019-05-13T07:08:25.809Z,14.70
2019-05-13T07:10:56.669Z,15.60
2019-05-13T07:13:34.413Z,16.30
2019-05-13T07:16:11.785Z,16.00
2019-05-13T07:18:43.329Z,15.90
2019-05-13T07:21:14.930Z,13.80
2019-05-13T07:23:45.376Z,13.50
2019-05-13T07:26:22.109Z,15.60
2019-05-13T07:28:54.903Z,15.80
2019-05-13T07:31:23.897Z,16.00
2019-05-13T07:34:02.286Z,15.00
2019-05-13T07:36:37.480Z,15.00
2019-05-13T07:42:08.887Z,15.60
2019-05-13T07:44:43.880Z,15.50
2019-05-13T07:47:15.981Z,15.50
2019-05-13T07:49:45.883Z,15.70
2019-05-13T07:52:17.892Z,15.90
2019-05-13T07:54:46.691Z,15.00
2019-05-13T07:57:21.323Z,16.00
2019-05-13T08:00:12.602Z,16.00
2019-05-13T08:02:47.857Z,15.50
2019-05-13T08:05:16.708Z,14.70
2019-05-13T08:07:51.659Z,16.10
2019-05-13T08:10:23.122Z,16.30
2019-05-13T08:13:06.253Z,17.10
2019-05-13T08:15:43.074Z,16.00
2019-05-13T08:18:18.817Z,16.00
2019-05-13T08:20:52.497Z,15.20
2019-05-13T08:23:23.609Z,15.00
2019-05-13T08:25:55.686Z,15.80
2019-05-13T08:28:35.726Z,15.00
2019-05-13T08:31:12.089Z,14.20
2019-05-13T08:33:42.582Z,15.50
2019-05-13T08:36:13.905Z,16.80
2019-05-13T08:38:45.171Z,16.60
2019-05-13T08:41:23.348Z,19.10
2019-05-13T08:43:53.786Z,18.00
2019-05-13T08:46:28.701Z,17.60
2019-05-13T08:48:57.420Z,16.30
2019-05-13T08:51:31.451Z,16.50
2019-05-13T08:54:11.506Z,18.20
2019-05-13T08:56:41.925Z,18.40
2019-05-13T08:59:17.232Z,17.70
2019-05-13T09:02:05.862Z,17.40
2019-05-13T09:04:35.462Z,18.80
2019-05-13T09:07:07.397Z,20.00
2019-05-13T09:10:18.477Z,18.30
2019-05-13T09:12:52.874Z,19.60
2019-05-13T09:15:24.043Z,17.70
2019-05-13T09:18:24.981Z,18.50
2019-05-13T09:21:02.659Z,18.70
2019-05-13T09:23:34.421Z,18.90
2019-05-13T09:26:06.014Z,18.60
2019-05-13T09:28:45.164Z,18.40
2019-05-13T09:31:18.667Z,16.70
2019-05-13T09:33:53.083Z,17.60
2019-05-13T09:36:32.299Z,18.50
2019-05-13T09:39:02.435Z,17.10
2019-05-13T09:41:40.821Z,18.50
2019-05-13T09:44:07.437Z,16.60
2019-05-13T09:46:42.643Z,17.00
2019-05-13T09:52:42.649Z,17.80
2019-05-13T09:55:26.452Z,17.50
2019-05-13T09:57:52.510Z,17.40
2019-05-13T10:00:21.881Z,17.30
2019-05-13T10:03:02.015Z,17.20
2019-05-13T10:05:33.818Z,16.70
2019-05-13T10:08:03.501Z,16.00
2019-05-13T10:10:42.467Z,16.00
2019-05-13T10:13:15.673Z,16.30
2019-05-13T10:15:48.542Z,16.20
2019-05-13T10:18:17.770Z,15.90
2019-05-13T10:20:59.277Z,15.90
2019-05-13T10:23:35.885Z,15.40
2019-05-13T10:26:13.457Z,14.90
2019-05-13T10:28:43.213Z,14.60
2019-05-13T10:31:17.370Z,14.70
2019-05-13T10:33:55.759Z,15.10
2019-05-13T10:36:32.026Z,14.90
2019-05-13T10:39:08.310Z,15.00
2019-05-13T10:41:37.231Z,14.90
2019-05-13T10:44:12.068Z,15.10
2019-05-13T10:46:46.247Z,14.90
2019-05-13T10:49:34.130Z,14.60
2019-05-13T10:52:08.675Z,15.00
2019-05-13T10:54:41.971Z,15.40
2019-05-13T10:57:13.702Z,15.20
2019-05-13T10:59:44.600Z,14.90
2019-05-13T11:02:53.589Z,15.10
2019-05-13T11:05:25.470Z,15.40
2019-05-13T11:07:57.647Z,15.50
2019-05-13T11:10:35.073Z,15.60
2019-05-13T11:13:10.686Z,15.20
2019-05-13T11:15:45.397Z,15.10
2019-05-13T11:18:21.383Z,15.70
2019-05-13T11:20:49.834Z,15.90
2019-05-13T11:23:18.564Z,16.00
2019-05-13T11:25:52.243Z,15.80
2019-05-13T11:28:24.427Z,15.20
2019-05-13T11:30:53.511Z,15.40
2019-05-13T11:33:23.293Z,15.40
2019-05-13T11:35:52.509Z,15.70
2019-05-13T11:38:22.384Z,15.80
2019-05-13T11:40:52.432Z,15.90
2019-05-13T11:43:22.241Z,15.40
2019-05-13T11:45:52.019Z,15.70
2019-05-13T11:48:23.479Z,15.60
2019-05-13T11:50:54.198Z,15.90
2019-05-13T11:53:38.498Z,15.40
2019-05-13T11:55:53.005Z,15.70
2019-05-13T11:58:21.962Z,16.00
2019-05-13T12:00:53.787Z,16.20
2019-05-13T12:03:28.337Z,16.30
2019-05-13T12:05:57.174Z,15.70
2019-05-13T12:08:33.999Z,15.60
2019-05-13T12:11:04.247Z,16.10
2019-05-13T12:13:33.080Z,16.10
2019-05-13T12:16:07.659Z,16.40
2019-05-13T12:18:43.174Z,16.10
2019-05-13T12:21:06.578Z,15.70
2019-05-13T12:23:42.850Z,15.70
2019-05-13T12:26:12.908Z,16.20
2019-05-13T12:29:18.567Z,16.20
2019-05-13T12:31:43.446Z,16.40
2019-05-13T12:34:13.240Z,16.10
2019-05-13T12:36:43.512Z,16.10
2019-05-13T12:39:14.285Z,16.10
2019-05-13T12:41:47.051Z,16.20
2019-05-13T12:44:15.978Z,16.50
2019-05-13T12:46:50.570Z,17.00
2019-05-13T12:49:18.256Z,17.20
2019-05-13T12:51:51.098Z,17.60
2019-05-13T12:54:23.918Z,17.40
2019-05-13T12:56:53.518Z,16.90
2019-05-13T12:59:25.724Z,17.40
2019-05-13T13:01:54.575Z,17.50
2019-05-13T13:04:25.108Z,16.90
2019-05-13T13:06:54.919Z,16.90
2019-05-13T13:09:23.707Z,16.80
2019-05-13T13:11:54.270Z,16.50
2019-05-13T13:14:23.456Z,16.50
2019-05-13T13:16:53.995Z,16.90
2019-05-13T13:19:25.216Z,16.60
2019-05-13T13:22:02.932Z,16.60
2019-05-13T13:24:25.350Z,16.60
2019-05-13T13:26:57.116Z,16.60
2019-05-13T13:29:33.989Z,16.70
2019-05-13T13:32:02.878Z,16.80
2019-05-13T13:34:36.631Z,16.80
2019-05-13T13:37:05.471Z,16.90
2019-05-13T13:39:43.147Z,16.70
2019-05-13T13:42:13.093Z,16.60
2019-05-13T13:44:42.910Z,16.60
2019-05-13T13:47:14.696Z,16.80
2019-05-13T13:49:53.166Z,17.20
2019-05-13T13:52:22.738Z,17.50
2019-05-13T13:55:02.695Z,17.40
2019-05-13T13:57:25.538Z,17.40
2019-05-13T14:02:25.462Z,17.00
2019-05-13T14:04:54.346Z,16.90
2019-05-13T14:07:31.699Z,17.00
2019-05-13T14:09:54.880Z,17.00
2019-05-13T14:12:23.506Z,16.40
2019-05-13T14:14:52.234Z,16.60
2019-05-13T14:17:21.949Z,17.00
2019-05-13T14:19:52.340Z,17.40
2019-05-13T14:22:28.901Z,17.10
2019-05-13T14:24:57.827Z,17.10
2019-05-13T14:27:26.618Z,17.20
2019-05-13T14:29:55.591Z,16.90
2019-05-13T14:32:24.554Z,17.00
2019-05-13T14:34:53.589Z,17.00
2019-05-13T14:40:18.753Z,17.10
2019-05-13T14:42:47.837Z,17.10
2019-05-13T14:45:20.436Z,17.30
2019-05-13T14:47:46.998Z,17.00
2019-05-13T14:50:15.772Z,17.20
2019-05-13T14:52:44.588Z,17.20
2019-05-13T14:55:17.976Z,17.20
2019-05-13T14:57:46.744Z,17.10
2019-05-13T15:00:15.520Z,17.00
2019-05-13T15:02:44.849Z,17.10
2019-05-13T15:05:13.881Z,17.00
2019-05-13T15:07:42.982Z,17.20
2019-05-13T15:10:14.162Z,17.20
2019-05-13T15:12:43.390Z,17.40
2019-05-13T15:15:13.641Z,17.50
2019-05-13T15:17:57.048Z,16.90
2019-05-13T15:20:25.948Z,16.80
2019-05-13T15:22:55.833Z,16.90
2019-05-13T15:25:25.898Z,16.90
2019-05-13T15:27:54.927Z,16.80
2019-05-13T15:30:23.777Z,17.00
2019-05-13T15:32:52.815Z,16.90
2019-05-13T15:35:21.593Z,17.00
2019-05-13T15:37:52.306Z,17.00
2019-05-13T15:40:21.983Z,16.80
2019-05-13T15:42:51.781Z,16.70
2019-05-13T15:49:05.566Z,17.10
2019-05-13T15:51:36.387Z,17.20
2019-05-13T15:54:15.544Z,17.30
2019-05-13T15:56:45.893Z,17.30
2019-05-13T15:59:17.905Z,17.20
2019-05-13T16:01:52.876Z,17.30
2019-05-13T16:04:27.766Z,17.20
2019-05-13T16:06:56.610Z,16.90
2019-05-13T16:09:37.191Z,16.90
2019-05-13T16:12:06.050Z,17.00
2019-05-13T16:14:43.672Z,17.10
2019-05-13T16:17:16.260Z,17.10
2019-05-13T16:19:53.572Z,17.00
2019-05-13T16:22:27.117Z,17.00
2019-05-13T16:24:55.719Z,16.90
2019-05-13T16:27:31.173Z,17.00
2019-05-13T16:30:11.614Z,17.20
2019-05-13T16:32:42.280Z,17.00
2019-05-13T16:35:15.619Z,16.90
2019-05-13T16:37:44.259Z,16.70
2019-05-13T16:40:25.040Z,16.40
2019-05-13T16:43:03.119Z,16.40
2019-05-13T16:45:32.140Z,16.50
2019-05-13T16:48:03.888Z,16.60
2019-05-13T16:50:31.407Z,16.60
2019-05-13T16:53:02.013Z,16.60
2019-05-13T16:55:32.731Z,16.60
2019-05-13T16:58:04.484Z,16.50
2019-05-13T17:00:45.987Z,16.30
2019-05-13T17:03:23.875Z,16.40
2019-05-13T17:05:58.797Z,16.40
2019-05-13T17:08:36.478Z,16.40
2019-05-13T17:11:05.168Z,16.40
2019-05-13T17:13:44.422Z,16.40
2019-05-13T17:16:14.098Z,16.20
2019-05-13T17:18:42.653Z,16.30
2019-05-13T17:21:11.297Z,16.30
2019-05-13T17:23:42.036Z,16.30
2019-05-13T17:26:13.347Z,16.30
2019-05-13T17:28:51.895Z,16.30
2019-05-13T17:31:23.972Z,16.30
2019-05-13T17:34:14.050Z,16.30
2019-05-13T17:36:44.955Z,16.20
2019-05-13T17:39:21.305Z,16.30
2019-05-13T17:41:52.210Z,16.40
2019-05-13T17:44:22.650Z,16.30
2019-05-13T17:47:01.735Z,16.30
2019-05-13T17:49:31.908Z,16.00
2019-05-13T17:52:02.524Z,15.80
2019-05-13T17:54:33.983Z,15.90
2019-05-13T17:57:09.326Z,15.80
2019-05-13T17:59:44.171Z,15.90
2019-05-13T18:02:12.942Z,16.00
2019-05-13T18:08:14.461Z,15.80
2019-05-13T18:10:43.338Z,15.80
2019-05-13T18:13:14.144Z,15.80
2019-05-13T18:15:52.256Z,15.60
2019-05-13T18:18:21.534Z,15.60
2019-05-13T18:20:52.057Z,15.60
2019-05-13T18:23:26.465Z,15.50
2019-05-13T18:26:01.947Z,15.50
2019-05-13T18:28:34.558Z,15.50
2019-05-13T18:31:12.301Z,15.50
2019-05-13T18:33:58.274Z,15.30
2019-05-13T18:36:26.810Z,15.20
2019-05-13T18:39:41.863Z,15.20
2019-05-13T18:42:11.508Z,15.20
2019-05-13T18:44:42.192Z,15.00
2019-05-13T18:47:13.071Z,14.90
2019-05-13T18:49:48.279Z,14.80
2019-05-13T18:52:31.166Z,14.70
2019-05-13T18:55:02.506Z,14.60
2019-05-13T18:57:33.324Z,14.40
2019-05-13T19:05:49.717Z,14.10
2019-05-13T19:08:33.442Z,14.10
2019-05-13T19:11:05.553Z,14.00
2019-05-13T19:13:41.873Z,13.90
2019-05-13T19:16:13.830Z,13.90
2019-05-13T19:18:45.814Z,13.80
2019-05-13T19:21:17.529Z,13.70
2019-05-13T19:23:58.889Z,13.60
2019-05-13T19:26:27.804Z,13.50
2019-05-13T19:29:12.349Z,13.40
2019-05-13T19:31:44.748Z,13.20
2019-05-13T19:34:13.473Z,13.20
2019-05-13T19:36:42.198Z,13.30
2019-05-13T19:39:11.539Z,13.20
2019-05-13T19:41:42.318Z,13.10
2019-05-13T19:44:13.857Z,13.10
2019-05-13T19:46:43.752Z,12.90
2019-05-13T19:49:29.694Z,12.80
2019-05-13T19:52:02.289Z,12.90
2019-05-13T19:54:31.471Z,12.80
2019-05-13T19:57:06.395Z,12.70
2019-05-13T19:59:37.028Z,12.50
2019-05-13T20:02:05.639Z,12.40
2019-05-13T20:04:34.433Z,12.30
2019-05-13T20:07:03.011Z,12.20
2019-05-13T20:09:32.327Z,12.20
2019-05-13T20:12:02.042Z,12.10
2019-05-13T20:14:30.877Z,12.10
2019-05-13T20:17:01.466Z,12.00
2019-05-13T20:19:49.773Z,11.80
2019-05-13T20:22:06.981Z,11.80
2019-05-13T20:24:35.596Z,11.80
2019-05-13T20:27:04.192Z,11.80
2019-05-13T20:29:33.094Z,11.80
2019-05-13T20:32:01.796Z,11.70
2019-05-13T20:34:31.877Z,11.60
2019-05-13T20:37:02.201Z,11.50
2019-05-13T20:39:31.907Z,11.50
2019-05-13T20:42:01.609Z,11.40
2019-05-13T20:44:31.456Z,11.50
2019-05-13T20:47:01.615Z,11.40
2019-05-13T20:49:31.195Z,11.50
2019-05-13T20:52:00.134Z,11.40
2019-05-13T20:54:31.427Z,11.30
2019-05-13T20:57:01.962Z,11.30
2019-05-13T20:59:32.143Z,11.20
2019-05-13T21:02:02.405Z,11.10
2019-05-13T21:04:32.190Z,11.10
2019-05-13T21:07:02.057Z,11.10
2019-05-13T21:09:31.634Z,11.20
2019-05-13T21:12:03.497Z,11.10
2019-05-13T21:14:32.012Z,11.00
2019-05-13T21:17:03.529Z,11.10
2019-05-13T21:19:39.833Z,11.10
2019-05-13T21:22:08.444Z,11.00
2019-05-13T21:24:37.133Z,11.00
2019-05-13T21:27:06.125Z,10.90
2019-05-13T21:29:35.831Z,10.90
2019-05-13T21:32:11.836Z,10.90
2019-05-13T21:34:40.471Z,10.90
2019-05-13T21:37:11.385Z,10.90
2019-05-13T21:39:41.293Z,10.90
2019-05-13T21:42:11.473Z,10.80
2019-05-13T21:44:41.915Z,10.80
2019-05-13T21:47:11.433Z,10.80
2019-05-13T21:49:42.143Z,10.70
2019-05-13T21:52:10.429Z,10.70
2019-05-13T21:54:44.934Z,10.70
2019-05-13T21:57:17.028Z,10.50
2019-05-13T21:59:48.834Z,10.40
2019-05-13T22:02:17.468Z,10.30
2019-05-13T22:04:46.046Z,10.30
2019-05-13T22:07:16.164Z,10.40
2019-05-13T22:09:44.823Z,10.40
2019-05-13T22:12:13.399Z,10.30
2019-05-13T22:14:45.101Z,10.30
2019-05-13T22:17:14.345Z,10.30
2019-05-13T22:19:45.779Z,10.20
2019-05-13T22:22:14.425Z,10.10
2019-05-13T22:24:43.077Z,10.10
2019-05-13T22:27:13.238Z,10.10
2019-05-13T22:29:42.153Z,10.10
2019-05-13T22:32:11.305Z,10.10
2019-05-13T22:34:41.917Z,10.00
2019-05-13T22:37:11.779Z,10.00
2019-05-13T22:39:42.185Z,10.00
2019-05-13T22:42:12.446Z,10.00
2019-05-13T22:44:41.875Z,10.00
2019-05-13T22:47:13.002Z,10.00
2019-05-13T22:49:41.016Z,9.90
2019-05-13T22:52:11.425Z,9.80
2019-05-13T22:54:45.920Z,9.80
2019-05-13T22:57:14.975Z,9.80
2019-05-13T22:59:43.560Z,9.70
2019-05-13T23:02:12.207Z,9.70
2019-05-13T23:04:43.777Z,9.60
2019-05-13T23:07:12.360Z,9.70
2019-05-13T23:09:44.207Z,9.50
2019-05-13T23:12:12.977Z,9.50
2019-05-13T23:14:41.951Z,9.50
2019-05-13T23:17:12.515Z,9.40
2019-05-13T23:19:41.477Z,9.30
2019-05-13T23:22:12.058Z,9.30
2019-05-13T23:24:41.753Z,9.30
2019-05-13T23:27:11.080Z,9.30
2019-05-13T23:29:43.075Z,9.30
2019-05-13T23:32:12.143Z,9.30
2019-05-13T23:34:42.239Z,9.30
2019-05-13T23:37:11.436Z,9.20
2019-05-13T23:39:41.705Z,9.20
2019-05-13T23:42:12.187Z,9.10
2019-05-13T23:44:41.394Z,9.10
2019-05-13T23:47:11.472Z,9.10
2019-05-13T23:49:42.216Z,9.00
2019-05-13T23:52:11.685Z,9.00
2019-05-13T23:54:42.536Z,9.10
2019-05-13T23:57:11.788Z,9.00
2019-05-13T23:59:41.978Z,9.00
